createdAt,value
2018-08-03T00:00:19.647Z,79.00
2018-08-03T00:02:47.281Z,79.20
2018-08-03T00:05:15.024Z,79.40
2018-08-03T00:07:42.697Z,79.80
2018-08-03T00:10:10.317Z,80.10
2018-08-03T00:12:38.266Z,79.80
2018-08-03T00:15:06.746Z,79.60
2018-08-03T00:17:34.947Z,79.60
2018-08-03T00:20:03.606Z,79.70
2018-08-03T00:22:31.208Z,79.90
2018-08-03T00:24:58.848Z,80.10
2018-08-03T00:27:26.405Z,80.50
2018-08-03T00:29:54.168Z,80.90
2018-08-03T00:32:22.007Z,81.20
2018-08-03T00:34:49.640Z,81.50
2018-08-03T00:37:17.233Z,81.70
2018-08-03T00:39:44.853Z,82.00
2018-08-03T00:42:12.511Z,82.20
2018-08-03T00:44:40.206Z,82.70
2018-08-03T00:47:07.928Z,83.10
2018-08-03T00:49:35.514Z,83.50
2018-08-03T00:52:03.210Z,83.80
2018-08-03T00:54:30.930Z,83.90
2018-08-03T00:56:58.585Z,83.90
2018-08-03T00:59:26.201Z,83.80
2018-08-03T01:01:53.770Z,83.90
2018-08-03T01:04:21.353Z,84.10
2018-08-03T01:06:49.244Z,83.90
2018-08-03T01:09:16.768Z,84.10
2018-08-03T01:11:44.533Z,84.30
2018-08-03T01:14:12.181Z,84.70
2018-08-03T01:16:41.094Z,85.10
2018-08-03T01:19:11.195Z,85.70
2018-08-03T01:21:39.100Z,85.60
2018-08-03T01:24:06.823Z,85.50
2018-08-03T01:26:34.448Z,85.60
2018-08-03T01:29:02.232Z,85.60
2018-08-03T01:31:29.878Z,85.80
2018-08-03T01:33:57.679Z,85.90
2018-08-03T01:36:25.304Z,86.40
2018-08-03T01:38:52.900Z,86.80
2018-08-03T01:41:20.665Z,87.30
2018-08-03T01:43:48.224Z,87.60
2018-08-03T01:46:15.856Z,88.00
2018-08-03T01:48:43.528Z,88.30
2018-08-03T01:51:11.282Z,88.70
2018-08-03T01:56:06.778Z,89.50
2018-08-03T01:58:34.384Z,89.90
2018-08-03T02:01:01.999Z,90.00
2018-08-03T02:03:29.631Z,90.20
2018-08-03T02:05:57.223Z,90.40
2018-08-03T02:08:24.821Z,90.70
2018-08-03T02:10:52.506Z,91.00
2018-08-03T02:13:20.323Z,91.30
2018-08-03T02:15:47.945Z,91.50
2018-08-03T02:18:15.533Z,91.70
2018-08-03T02:20:43.093Z,92.00
2018-08-03T02:23:10.697Z,92.20
2018-08-03T02:25:38.337Z,92.50
2018-08-03T02:28:05.934Z,92.70
2018-08-03T02:30:33.485Z,93.20
2018-08-03T02:33:01.117Z,93.50
2018-08-03T02:35:28.657Z,93.70
2018-08-03T02:37:56.205Z,94.00
2018-08-03T02:40:23.949Z,94.30
2018-08-03T02:42:51.520Z,94.60
2018-08-03T02:45:19.090Z,95.00
2018-08-03T02:47:46.701Z,95.10
2018-08-03T02:50:14.317Z,95.30
2018-08-03T02:52:41.860Z,95.50
2018-08-03T02:55:09.465Z,95.90
2018-08-03T02:57:36.987Z,96.20
2018-08-03T03:00:04.689Z,96.70
2018-08-03T03:02:32.286Z,96.80
2018-08-03T03:04:59.861Z,97.30
2018-08-03T03:07:27.528Z,97.20
2018-08-03T03:09:55.180Z,97.50
2018-08-03T03:12:22.809Z,97.80
2018-08-03T03:14:50.403Z,98.00
2018-08-03T03:17:18.509Z,98.30
2018-08-03T03:19:46.113Z,98.60
2018-08-03T03:22:13.673Z,98.90
2018-08-03T03:24:41.258Z,99.30
2018-08-03T03:27:08.891Z,99.80
2018-08-03T03:29:36.529Z,99.90
2018-08-03T03:32:04.290Z,99.90
2018-08-03T03:34:31.935Z,99.90
2018-08-03T03:36:59.611Z,99.90
2018-08-03T03:39:27.182Z,99.90
2018-08-03T03:41:54.739Z,99.90
2018-08-03T03:44:22.353Z,99.90
2018-08-03T03:46:49.912Z,99.90
2018-08-03T03:49:17.474Z,99.90
2018-08-03T03:51:45.111Z,99.90
2018-08-03T03:54:12.748Z,99.90
2018-08-03T03:56:40.326Z,99.90
2018-08-03T03:59:07.878Z,99.90
2018-08-03T04:01:35.492Z,99.90
2018-08-03T04:04:03.065Z,99.90
2018-08-03T04:06:30.648Z,99.90
2018-08-03T04:11:25.772Z,99.90
2018-08-03T04:13:53.340Z,99.90
2018-08-03T04:16:20.930Z,99.90
2018-08-03T04:18:48.471Z,99.90
2018-08-03T04:21:16.107Z,99.90
2018-08-03T04:23:43.921Z,99.90
2018-08-03T04:26:11.496Z,99.90
2018-08-03T04:28:39.249Z,99.90
2018-08-03T04:31:06.904Z,99.90
2018-08-03T04:33:34.532Z,99.90
2018-08-03T04:36:02.076Z,99.90
2018-08-03T04:38:29.668Z,99.90
2018-08-03T04:40:57.204Z,99.90
2018-08-03T04:43:24.804Z,99.90
2018-08-03T04:45:52.418Z,99.90
2018-08-03T04:48:20.037Z,99.90
2018-08-03T04:50:47.585Z,99.90
2018-08-03T04:53:15.185Z,99.90
2018-08-03T04:55:42.877Z,99.90
2018-08-03T04:58:10.463Z,99.90
2018-08-03T05:00:38.060Z,99.90
2018-08-03T05:03:05.748Z,99.90
2018-08-03T05:05:33.300Z,99.10
2018-08-03T05:08:00.867Z,96.30
2018-08-03T05:10:28.434Z,94.00
2018-08-03T05:15:23.592Z,88.20
2018-08-03T05:20:18.677Z,78.70
2018-08-03T05:22:46.241Z,76.10
2018-08-03T05:25:13.837Z,75.20
2018-08-03T05:27:41.549Z,74.70
2018-08-03T05:30:09.741Z,72.90
2018-08-03T05:32:37.481Z,71.30
2018-08-03T05:35:05.665Z,70.20
2018-08-03T05:37:33.281Z,67.60
2018-08-03T05:40:00.813Z,65.50
2018-08-03T05:42:28.434Z,65.20
2018-08-03T05:44:56.111Z,63.80
2018-08-03T05:47:23.753Z,62.50
2018-08-03T05:49:51.264Z,61.20
2018-08-03T05:52:18.885Z,60.50
2018-08-03T05:54:46.521Z,59.60
2018-08-03T05:57:14.086Z,59.20
2018-08-03T05:59:41.711Z,59.50
2018-08-03T06:02:09.399Z,58.90
2018-08-03T06:04:36.931Z,59.20
2018-08-03T06:07:04.626Z,59.10
2018-08-03T06:09:32.231Z,59.80
2018-08-03T06:11:59.830Z,60.60
2018-08-03T06:14:27.392Z,60.90
2018-08-03T06:16:54.950Z,61.20
2018-08-03T06:19:22.558Z,61.10
2018-08-03T06:21:50.225Z,61.70
2018-08-03T06:24:17.780Z,61.30
2018-08-03T06:26:45.401Z,61.40
2018-08-03T06:29:13.010Z,62.30
2018-08-03T06:31:40.596Z,62.70
2018-08-03T06:34:08.102Z,62.50
2018-08-03T06:36:35.764Z,62.20
2018-08-03T06:39:05.865Z,61.90
2018-08-03T06:41:33.442Z,61.40
2018-08-03T06:44:01.088Z,60.50
2018-08-03T06:46:28.672Z,59.70
2018-08-03T06:48:56.295Z,59.30
2018-08-03T06:51:23.981Z,58.50
2018-08-03T06:53:51.631Z,58.10
2018-08-03T06:56:19.343Z,57.60
2018-08-03T06:58:46.944Z,56.80
2018-08-03T07:01:14.557Z,56.10
2018-08-03T07:03:42.096Z,55.20
2018-08-03T07:06:09.677Z,54.10
2018-08-03T07:08:37.329Z,53.10
2018-08-03T07:11:04.861Z,52.70
2018-08-03T07:13:32.471Z,51.80
2018-08-03T07:16:00.028Z,51.20
2018-08-03T07:18:27.595Z,50.70
2018-08-03T07:20:55.158Z,50.00
2018-08-03T07:23:22.762Z,49.10
2018-08-03T07:25:50.341Z,48.10
2018-08-03T07:28:18.090Z,48.20
2018-08-03T07:30:45.664Z,48.40
2018-08-03T07:33:13.170Z,46.90
2018-08-03T07:35:40.818Z,46.80
2018-08-03T07:38:08.385Z,46.30
2018-08-03T07:40:42.327Z,45.90
2018-08-03T07:43:09.937Z,45.10
2018-08-03T07:45:37.490Z,44.70
2018-08-03T07:48:05.038Z,43.60
2018-08-03T07:50:32.601Z,42.40
2018-08-03T07:53:00.193Z,41.40
2018-08-03T07:55:27.667Z,40.40
2018-08-03T07:57:55.224Z,39.70
2018-08-03T08:00:22.762Z,38.80
2018-08-03T08:02:50.341Z,37.60
2018-08-03T08:05:17.953Z,36.60
2018-08-03T08:07:45.497Z,35.70
2018-08-03T08:10:13.153Z,34.40
2018-08-03T08:12:40.694Z,33.60
2018-08-03T08:15:08.362Z,32.90
2018-08-03T08:17:36.023Z,32.50
2018-08-03T08:20:03.935Z,32.00
2018-08-03T08:22:31.497Z,32.40
2018-08-03T08:24:59.178Z,32.50
2018-08-03T08:27:26.708Z,32.30
2018-08-03T08:29:54.313Z,31.10
2018-08-03T08:32:21.916Z,30.20
2018-08-03T08:34:49.501Z,29.50
2018-08-03T08:37:17.132Z,29.60
2018-08-03T08:39:44.765Z,29.50
2018-08-03T08:42:12.369Z,28.60
2018-08-03T08:44:39.937Z,28.20
2018-08-03T08:47:07.552Z,28.00
2018-08-03T08:49:35.127Z,27.90
2018-08-03T08:52:02.793Z,28.00
2018-08-03T08:54:30.391Z,27.60
2018-08-03T08:56:58.003Z,27.40
2018-08-03T08:59:25.532Z,27.50
2018-08-03T09:01:53.214Z,28.10
2018-08-03T09:04:20.744Z,29.70
2018-08-03T09:06:48.399Z,31.30
2018-08-03T09:09:15.960Z,32.90
2018-08-03T09:11:43.573Z,34.80
2018-08-03T09:14:11.124Z,36.30
2018-08-03T09:16:38.735Z,37.60
2018-08-03T09:19:06.326Z,39.20
2018-08-03T09:21:33.904Z,40.30
2018-08-03T09:24:01.780Z,41.40
2018-08-03T09:26:29.386Z,42.10
2018-08-03T09:28:56.931Z,43.10
2018-08-03T09:31:24.577Z,44.00
2018-08-03T09:33:52.134Z,44.40
2018-08-03T09:36:19.719Z,45.00
2018-08-03T09:38:47.343Z,44.80
2018-08-03T09:41:14.910Z,45.50
2018-08-03T09:43:42.713Z,45.90
2018-08-03T09:46:10.633Z,46.30
2018-08-03T09:48:38.207Z,45.90
2018-08-03T09:51:06.191Z,46.60
2018-08-03T09:53:33.765Z,46.80
2018-08-03T09:56:01.397Z,47.20
2018-08-03T09:58:28.971Z,47.80
2018-08-03T10:01:01.136Z,48.40
2018-08-03T10:03:28.694Z,47.80
2018-08-03T10:05:56.208Z,48.70
2018-08-03T10:08:23.910Z,48.60
2018-08-03T10:10:51.465Z,48.60
2018-08-03T10:13:19.052Z,47.80
2018-08-03T10:15:46.606Z,48.30
2018-08-03T10:18:14.205Z,47.70
2018-08-03T10:20:41.746Z,48.00
2018-08-03T10:23:09.583Z,48.10
2018-08-03T10:25:37.106Z,47.80
2018-08-03T10:28:04.710Z,47.50
2018-08-03T10:30:32.326Z,46.60
2018-08-03T10:35:27.400Z,46.60
2018-08-03T10:37:55.006Z,45.80
2018-08-03T10:40:22.834Z,45.50
2018-08-03T10:42:50.504Z,45.40
2018-08-03T10:45:18.078Z,46.10
2018-08-03T10:47:45.646Z,45.50
2018-08-03T10:50:13.249Z,45.70
2018-08-03T10:52:40.812Z,46.00
2018-08-03T10:55:08.437Z,45.60
2018-08-03T10:57:36.002Z,44.50
2018-08-03T11:00:04.538Z,45.00
2018-08-03T11:02:32.138Z,45.60
2018-08-03T11:04:59.692Z,45.60
2018-08-03T11:07:27.322Z,45.20
2018-08-03T11:09:54.877Z,45.90
2018-08-03T11:12:22.496Z,46.20
2018-08-03T11:14:50.688Z,46.30
2018-08-03T11:17:19.018Z,44.10
2018-08-03T11:19:46.650Z,44.20
2018-08-03T11:22:14.261Z,45.00
2018-08-03T11:24:41.816Z,45.30
2018-08-03T11:27:09.425Z,45.20
2018-08-03T11:32:04.681Z,45.10
2018-08-03T11:34:32.291Z,45.50
2018-08-03T11:36:59.913Z,45.50
2018-08-03T11:39:27.424Z,45.70
2018-08-03T11:41:55.057Z,45.90
2018-08-03T11:44:22.660Z,45.10
2018-08-03T11:46:50.235Z,44.30
2018-08-03T11:49:17.972Z,44.00
2018-08-03T11:51:45.622Z,44.10
2018-08-03T11:54:13.319Z,43.00
2018-08-03T11:56:40.899Z,43.20
2018-08-03T11:59:08.513Z,43.30
2018-08-03T12:01:36.341Z,43.40
2018-08-03T12:04:03.989Z,43.30
2018-08-03T12:06:31.620Z,44.00
2018-08-03T12:08:59.225Z,43.70
2018-08-03T12:11:26.857Z,44.10
2018-08-03T12:13:54.461Z,43.80
2018-08-03T12:16:22.054Z,43.60
2018-08-03T12:18:49.633Z,43.70
2018-08-03T12:21:17.277Z,43.80
2018-08-03T12:23:44.837Z,43.80
2018-08-03T12:26:12.404Z,43.80
2018-08-03T12:28:40.003Z,43.80
2018-08-03T12:31:07.623Z,43.80
2018-08-03T12:33:35.122Z,43.70
2018-08-03T12:36:02.944Z,42.90
2018-08-03T12:38:30.514Z,43.10
2018-08-03T12:40:58.130Z,43.40
2018-08-03T12:43:25.870Z,43.50
2018-08-03T12:45:53.396Z,43.70
2018-08-03T12:48:20.936Z,43.20
2018-08-03T12:50:48.556Z,43.30
2018-08-03T12:53:16.094Z,43.50
2018-08-03T12:55:43.684Z,42.80
2018-08-03T12:58:11.253Z,42.00
2018-08-03T13:00:38.812Z,42.50
2018-08-03T13:03:06.393Z,42.50
2018-08-03T13:05:34.010Z,42.40
2018-08-03T13:08:01.825Z,42.60
2018-08-03T13:10:29.228Z,42.60
2018-08-03T13:12:57.068Z,42.80
2018-08-03T13:15:24.732Z,42.60
2018-08-03T13:17:52.328Z,42.10
2018-08-03T13:20:19.939Z,41.80
2018-08-03T13:22:47.535Z,41.60
2018-08-03T13:25:15.101Z,41.50
2018-08-03T13:27:42.669Z,41.80
2018-08-03T13:30:10.373Z,42.00
2018-08-03T13:32:37.937Z,41.60
2018-08-03T13:35:05.827Z,41.50
2018-08-03T13:37:33.451Z,41.50
2018-08-03T13:40:01.025Z,41.50
2018-08-03T13:42:28.688Z,41.70
2018-08-03T13:44:56.216Z,41.70
2018-08-03T13:47:23.827Z,41.40
2018-08-03T13:49:52.053Z,41.00
2018-08-03T13:52:19.645Z,41.20
2018-08-03T13:54:47.213Z,41.80
2018-08-03T13:57:14.863Z,41.40
2018-08-03T13:59:42.438Z,40.90
2018-08-03T14:02:20.889Z,40.70
2018-08-03T14:04:48.483Z,40.80
2018-08-03T14:07:16.253Z,40.70
2018-08-03T14:09:43.956Z,40.70
2018-08-03T14:12:11.626Z,39.80
2018-08-03T14:14:39.897Z,40.10
2018-08-03T14:17:07.727Z,40.30
2018-08-03T14:19:35.345Z,40.50
2018-08-03T14:22:03.152Z,40.10
2018-08-03T14:24:30.745Z,39.90
2018-08-03T14:26:58.321Z,39.70
2018-08-03T14:29:25.897Z,39.70
2018-08-03T14:31:53.567Z,39.80
2018-08-03T14:34:21.129Z,39.90
2018-08-03T14:36:48.737Z,39.80
2018-08-03T14:39:16.354Z,39.50
2018-08-03T14:41:43.949Z,38.20
2018-08-03T14:44:11.557Z,38.80
2018-08-03T14:46:39.719Z,39.20
2018-08-03T14:49:07.299Z,38.80
2018-08-03T14:51:35.030Z,38.90
2018-08-03T14:54:02.647Z,39.30
2018-08-03T14:56:30.234Z,40.00
2018-08-03T14:58:57.983Z,38.80
2018-08-03T15:03:53.380Z,38.70
2018-08-03T15:06:21.015Z,38.80
2018-08-03T15:08:48.676Z,38.70
2018-08-03T15:11:16.294Z,38.90
2018-08-03T15:13:44.154Z,38.90
2018-08-03T15:16:11.805Z,38.90
2018-08-03T15:18:39.403Z,38.80
2018-08-03T15:21:07.194Z,38.80
2018-08-03T15:23:34.866Z,38.20
2018-08-03T15:26:02.512Z,38.40
2018-08-03T15:28:30.146Z,38.20
2018-08-03T15:30:57.780Z,38.50
2018-08-03T15:33:25.500Z,38.60
2018-08-03T15:35:53.437Z,37.90
2018-08-03T15:38:21.161Z,37.70
2018-08-03T15:40:48.818Z,37.90
2018-08-03T15:43:16.488Z,38.10
2018-08-03T15:45:44.147Z,38.10
2018-08-03T15:48:11.717Z,38.30
2018-08-03T15:50:39.407Z,38.30
2018-08-03T15:53:07.134Z,38.40
2018-08-03T15:55:34.845Z,38.20
2018-08-03T15:58:02.552Z,38.20
2018-08-03T16:00:30.170Z,38.10
2018-08-03T16:02:57.778Z,38.00
2018-08-03T16:05:25.332Z,38.00
2018-08-03T16:07:52.976Z,38.30
2018-08-03T16:10:20.540Z,37.90
2018-08-03T16:12:48.159Z,38.00
2018-08-03T16:15:15.721Z,37.90
2018-08-03T16:17:43.304Z,37.90
2018-08-03T16:20:10.899Z,37.90
2018-08-03T16:22:38.533Z,38.10
2018-08-03T16:25:06.301Z,38.10
2018-08-03T16:27:33.953Z,38.40
2018-08-03T16:30:01.605Z,38.30
2018-08-03T16:32:29.229Z,38.40
2018-08-03T16:34:56.845Z,38.10
2018-08-03T16:37:24.483Z,38.20
2018-08-03T16:39:52.097Z,38.20
2018-08-03T16:42:19.689Z,38.30
2018-08-03T16:44:47.333Z,38.00
2018-08-03T16:47:14.955Z,38.30
2018-08-03T16:49:42.547Z,38.10
2018-08-03T16:52:10.194Z,38.30
2018-08-03T16:54:37.828Z,38.40
2018-08-03T16:57:05.561Z,38.10
2018-08-03T16:59:33.481Z,38.40
2018-08-03T17:02:01.157Z,38.60
2018-08-03T17:04:28.781Z,38.30
2018-08-03T17:06:56.590Z,38.30
2018-08-03T17:09:24.204Z,38.30
2018-08-03T17:11:51.790Z,38.20
2018-08-03T17:14:19.571Z,38.30
2018-08-03T17:16:47.300Z,38.40
2018-08-03T17:19:14.926Z,38.50
2018-08-03T17:21:42.731Z,38.40
2018-08-03T17:24:10.410Z,38.20
2018-08-03T17:26:38.083Z,38.40
2018-08-03T17:29:05.723Z,37.80
2018-08-03T17:31:33.345Z,38.00
2018-08-03T17:34:00.956Z,38.00
2018-08-03T17:36:28.607Z,38.30
2018-08-03T17:38:56.201Z,38.40
2018-08-03T17:41:23.842Z,38.30
2018-08-03T17:43:51.508Z,38.20
2018-08-03T17:46:19.134Z,38.10
2018-08-03T17:48:46.721Z,38.20
2018-08-03T17:51:14.744Z,38.60
2018-08-03T17:53:42.328Z,38.20
2018-08-03T17:56:10.253Z,38.10
2018-08-03T17:58:37.830Z,38.10
2018-08-03T18:01:05.502Z,38.10
2018-08-03T18:03:33.078Z,38.20
2018-08-03T18:06:00.719Z,39.50
2018-08-03T18:08:28.309Z,38.80
2018-08-03T18:10:55.924Z,38.40
2018-08-03T18:13:23.604Z,38.60
2018-08-03T18:15:51.212Z,38.70
2018-08-03T18:18:18.815Z,39.50
2018-08-03T18:20:46.480Z,39.00
2018-08-03T18:23:14.068Z,39.00
2018-08-03T18:25:41.780Z,39.10
2018-08-03T18:28:09.426Z,39.20
2018-08-03T18:30:37.013Z,39.30
2018-08-03T18:33:04.669Z,39.50
2018-08-03T18:35:32.283Z,39.50
2018-08-03T18:37:59.877Z,39.50
2018-08-03T18:40:27.517Z,40.30
2018-08-03T18:42:55.148Z,39.90
2018-08-03T18:45:22.745Z,40.10
2018-08-03T18:47:50.345Z,40.30
2018-08-03T18:50:17.950Z,40.30
2018-08-03T18:52:45.602Z,40.40
2018-08-03T18:55:13.143Z,40.50
2018-08-03T18:57:40.819Z,40.60
2018-08-03T19:00:08.353Z,40.60
2018-08-03T19:02:35.952Z,40.70
2018-08-03T19:05:04.237Z,40.90
2018-08-03T19:07:31.789Z,40.90
2018-08-03T19:09:59.383Z,41.00
2018-08-03T19:12:26.988Z,41.00
2018-08-03T19:14:54.538Z,41.10
2018-08-03T19:17:22.552Z,41.10
2018-08-03T19:19:50.178Z,41.10
2018-08-03T19:22:17.758Z,41.20
2018-08-03T19:24:45.346Z,41.90
2018-08-03T19:27:12.997Z,41.30
2018-08-03T19:29:40.580Z,41.50
2018-08-03T19:32:08.708Z,41.60
2018-08-03T19:34:36.390Z,41.80
2018-08-03T19:37:04.199Z,41.90
2018-08-03T19:39:31.760Z,42.00
2018-08-03T19:41:59.438Z,42.30
2018-08-03T19:44:27.018Z,42.40
2018-08-03T19:49:22.158Z,43.00
2018-08-03T19:51:50.642Z,43.20
2018-08-03T19:54:18.388Z,43.50
2018-08-03T19:56:46.008Z,43.80
2018-08-03T19:59:13.652Z,44.30
2018-08-03T20:01:41.254Z,44.70
2018-08-03T20:04:08.871Z,44.90
2018-08-03T20:06:37.025Z,45.20
2018-08-03T20:09:07.177Z,45.50
2018-08-03T20:11:34.952Z,45.90
2018-08-03T20:14:02.561Z,46.00
2018-08-03T20:16:30.155Z,45.80
2018-08-03T20:18:57.778Z,46.00
2018-08-03T20:21:25.403Z,46.30
2018-08-03T20:23:53.205Z,46.50
2018-08-03T20:26:20.801Z,46.20
2018-08-03T20:28:48.387Z,46.30
2018-08-03T20:31:15.945Z,46.60
2018-08-03T20:33:43.799Z,46.30
2018-08-03T20:36:11.403Z,46.50
2018-08-03T20:38:38.981Z,46.50
2018-08-03T20:41:07.127Z,46.70
2018-08-03T20:43:34.685Z,46.90
2018-08-03T20:46:02.367Z,47.00
2018-08-03T20:48:30.101Z,47.10
2018-08-03T20:50:57.693Z,47.20
2018-08-03T20:53:25.291Z,47.30
2018-08-03T20:55:52.989Z,47.60
2018-08-03T20:58:20.618Z,47.80
2018-08-03T21:00:48.111Z,47.90
2018-08-03T21:03:16.538Z,47.90
2018-08-03T21:05:44.086Z,48.10
2018-08-03T21:08:11.604Z,48.00
2018-08-03T21:10:39.192Z,48.30
2018-08-03T21:13:06.806Z,48.60
2018-08-03T21:15:34.449Z,48.50
2018-08-03T21:18:02.044Z,48.70
2018-08-03T21:20:36.521Z,48.40
2018-08-03T21:23:04.147Z,48.40
2018-08-03T21:25:31.697Z,48.40
2018-08-03T21:27:59.275Z,48.10
2018-08-03T21:30:26.944Z,48.20
2018-08-03T21:32:54.485Z,48.10
2018-08-03T21:35:22.057Z,47.80
2018-08-03T21:37:49.632Z,47.90
2018-08-03T21:40:17.235Z,47.90
2018-08-03T21:42:44.811Z,48.00
2018-08-03T21:47:40.029Z,48.10
2018-08-03T21:50:07.701Z,48.20
2018-08-03T21:52:35.588Z,48.20
2018-08-03T21:55:03.257Z,48.30
2018-08-03T21:59:58.461Z,49.10
2018-08-03T22:02:26.249Z,48.50
2018-08-03T22:04:53.827Z,48.60
2018-08-03T22:07:21.439Z,48.60
2018-08-03T22:09:49.431Z,48.70
2018-08-03T22:12:17.031Z,48.70
2018-08-03T22:14:44.649Z,48.90
2018-08-03T22:17:12.232Z,48.90
2018-08-03T22:19:39.767Z,49.00
2018-08-03T22:22:07.737Z,49.00
2018-08-03T22:24:35.286Z,49.10
2018-08-03T22:27:02.905Z,49.20
2018-08-03T22:29:30.501Z,49.20
2018-08-03T22:31:58.086Z,49.30
2018-08-03T22:34:25.687Z,49.30
2018-08-03T22:36:53.302Z,49.20
2018-08-03T22:39:20.829Z,49.10
2018-08-03T22:41:48.417Z,49.20
2018-08-03T22:44:16.009Z,49.30
2018-08-03T22:46:43.560Z,49.40
2018-08-03T22:49:11.145Z,49.40
2018-08-03T22:51:38.749Z,49.50
2018-08-03T22:54:06.405Z,49.50
2018-08-03T22:56:33.965Z,49.40
2018-08-03T22:59:01.626Z,49.50
2018-08-03T23:01:29.217Z,49.60
2018-08-03T23:03:56.765Z,49.50
2018-08-03T23:06:24.469Z,49.50
2018-08-03T23:08:52.083Z,49.70
2018-08-03T23:11:20.004Z,49.80
2018-08-03T23:13:47.853Z,49.80
2018-08-03T23:16:15.456Z,49.80
2018-08-03T23:18:43.158Z,50.00
2018-08-03T23:21:10.821Z,50.20
2018-08-03T23:23:38.466Z,50.30
2018-08-03T23:26:06.029Z,50.80
2018-08-03T23:28:33.717Z,50.50
2018-08-03T23:31:01.373Z,50.60
2018-08-03T23:33:28.986Z,50.60
2018-08-03T23:35:56.654Z,50.80
2018-08-03T23:38:24.254Z,50.90
2018-08-03T23:40:51.816Z,51.10
2018-08-03T23:43:19.394Z,51.20
2018-08-03T23:45:46.962Z,51.30
2018-08-03T23:48:14.584Z,51.40
2018-08-03T23:50:42.167Z,51.50
2018-08-03T23:53:09.992Z,51.70
2018-08-03T23:55:37.710Z,51.80
2018-08-03T23:58:05.349Z,52.00
